Seymour Johnson Air Force Base
KGSB : now visible

Airfield :











YOU CAN JOIN US ON...

 
LOGIN :

Register | Disclaimer

   EN    FR    IT 

 









Legend :    VFR   Marginal VFR   IFR   Intensive IFR   Very Intensive IFR
Visi :
Ceiling :
>= 8 km
>= 3000ft
5 to 8 km
1000 to 3000 ft
1500m to 5 km
500 to 1000 ft
800 to 1500m
200 to 500 ft
< 800m
< 200 ft
Symbols :   Thunderstorms  Fog  Heavy snow  Heavy precipitations  Wind > 20 kt







- Airport Elevation : 109 ft


KGSB - Seymour Johnson Air Force Base

CURRENT METAR :
  • 260156Z AUTO 02007KT 10SM BKN050 OVC080 22/16 A3007 RMK AO2 SLP185 T02220162 $

EXPIRED METARs :
  • 260056Z AUTO 02006KT 10SM OVC049 22/16 A3007 RMK AO2 SLP185 T02220160 $
  • 252356Z AUTO 03006KT 10SM OVC048 22/16 A3006 RMK AO2 SLP182 T02240164 10240 20224 55003 $

TAF TAF KGSB
Valid from the 25 at 20:00 until the 27 at 02:00 UTC


252000Z 2520/2702 04010G15KT 9999 OVC040 QNH3007INS
BECMG 2523/2524 02007KT 9999 SCT060 QNH3009INS
BECMG 2611/2612 02010G15KT 9999 BKN015 QNH3011INS
BECMG 2616/2617 02006KT 9999 SCT020 BKN050 QNH3000INS TX28/2620Z TN17/2610Z LAST NO AMDS AFT 2520 NEXT 2604
No reported NOTAMs for that airfield.



MET'MAP, your aeronautical weather chart ! - Copyright ORBIFLY December 2007 - Disclaimer

ORBIFLY MET'MAP TEAM :

Programming & Development : Alexandra Zaïnal
Concept & Development : Baudouin d'Aumeries
Co-Development & Prog : Marc-Olivier Méhu
Technical & hardware support : Manuel Goepfert

Contact : metmap@orbifly.com




SOURCES & CREDITS :

   NOAA       Earth
Advisory